Time;durP1;ratioP1;P1;durP2;ratioP2;P2;SDS_P1;SDS_P2;PMS_P1;PMS_P2;Temp;Humidity;BMP_temperature;BMP_pressure;BME280_temperature;BME280_humidity;BME280_pressure;Samples;Min_cycle;Max_cycle;Signal;HPM_P1;HPM_P2
2022/09/01 00:00:47;;;;;;;8.90;3.07;;;16.20;36.80;;;;;;5037488;28;20453;-84
2022/09/01 00:03:15;;;;;;;8.30;2.33;;;16.00;37.10;;;;;;5038429;28;20900;-84
2022/09/01 00:05:43;;;;;;;8.20;2.50;;;15.90;37.80;;;;;;5038897;28;20460;-84
2022/09/01 00:08:10;;;;;;;5.57;2.00;;;15.80;38.90;;;;;;5038281;28;20496;-84
2022/09/01 00:10:36;;;;;;;5.70;2.57;;;15.60;40.20;;;;;;5038929;28;20457;-84
2022/09/01 00:13:05;;;;;;;6.27;3.37;;;15.70;40.40;;;;;;5038681;28;20453;-83
2022/09/01 00:15:32;;;;;;;5.10;2.50;;;15.50;41.30;;;;;;5039109;28;20499;-84
2022/09/01 00:18:01;;;;;;;5.90;2.23;;;15.40;42.50;;;;;;5038415;28;20469;-84
2022/09/01 00:20:28;;;;;;;6.83;3.20;;;15.30;43.60;;;;;;5039446;28;20460;-84
2022/09/01 00:22:55;;;;;;;6.93;2.40;;;15.40;44.60;;;;;;5038887;28;20459;-84
2022/09/01 00:25:23;;;;;;;4.90;2.30;;;15.20;44.80;;;;;;5038761;28;20488;-83
2022/09/01 00:27:51;;;;;;;6.23;2.77;;;15.10;46.20;;;;;;5041587;28;20850;-84
2022/09/01 00:30:18;;;;;;;6.53;3.43;;;15.00;46.30;;;;;;5042559;28;20531;-84
2022/09/01 00:32:45;;;;;;;6.20;3.03;;;14.90;48.50;;;;;;5041678;28;20459;-83
2022/09/01 00:35:13;;;;;;;6.83;3.10;;;14.90;48.50;;;;;;5041735;28;20475;-83
2022/09/01 00:37:40;;;;;;;6.67;3.17;;;14.90;48.50;;;;;;5041515;28;20992;-83
2022/09/01 00:40:10;;;;;;;6.03;2.60;;;14.80;48.50;;;;;;5040879;28;20464;-83
2022/09/01 00:42:38;;;;;;;8.33;3.93;;;15.00;50.20;;;;;;5042023;28;20456;-83
2022/09/01 00:45:07;;;;;;;6.83;3.50;;;15.00;50.10;;;;;;5041476;28;20535;-84
2022/09/01 00:47:35;;;;;;;7.60;3.87;;;14.90;50.80;;;;;;5042029;28;20472;-83
2022/09/01 00:50:05;;;;;;;6.83;3.83;;;14.90;51.30;;;;;;5041228;28;20462;-84
2022/09/01 00:52:37;;;;;;;11.53;3.53;;;14.70;52.10;;;;;;5041602;28;20452;-84
2022/09/01 00:55:09;;;;;;;5.73;3.13;;;14.60;52.50;;;;;;5041564;28;20454;-84
2022/09/01 00:57:36;;;;;;;8.83;3.30;;;14.50;54.80;;;;;;5041807;28;20472;-84
2022/09/01 01:00:10;;;;;;;7.50;3.70;;;14.30;55.90;;;;;;5041891;28;20464;-84
2022/09/01 01:02:37;;;;;;;6.00;3.50;;;14.20;58.60;;;;;;5041190;28;20501;-84
2022/09/01 01:05:06;;;;;;;6.63;3.50;;;14.20;59.30;;;;;;5040687;28;20472;-84
2022/09/01 01:07:37;;;;;;;6.93;4.33;;;14.00;61.30;;;;;;5041256;28;20479;-84
2022/09/01 01:10:05;;;;;;;7.87;3.60;;;13.90;64.50;;;;;;5041694;28;20476;-84
2022/09/01 01:12:36;;;;;;;6.40;4.50;;;13.70;66.80;;;;;;5041927;28;20843;-83
2022/09/01 01:15:05;;;;;;;6.03;4.73;;;13.60;70.00;;;;;;5041387;28;20448;-84
2022/09/01 01:17:33;;;;;;;6.60;4.13;;;13.50;72.20;;;;;;5041247;28;20499;-83
2022/09/01 01:23:05;;;;;;;9.80;6.20;;;13.40;74.70;;;;;;5021509;28;20525;-84
2022/09/01 01:25:36;;;;;;;8.43;7.63;;;13.30;77.00;;;;;;5025202;28;20476;-84
2022/09/01 01:28:14;;;;;;;9.27;6.60;;;13.30;80.00;;;;;;5041655;28;20894;-84
2022/09/01 01:30:43;;;;;;;9.23;8.20;;;13.30;80.00;;;;;;5041502;28;20449;-84
2022/09/01 01:33:10;;;;;;;12.00;10.93;;;13.20;83.30;;;;;;5041499;28;20870;-84
2022/09/01 01:35:37;;;;;;;14.03;12.77;;;13.20;85.20;;;;;;5040812;28;20452;-84
2022/09/01 01:38:06;;;;;;;13.47;12.27;;;13.20;86.20;;;;;;5040000;28;20480;-84
2022/09/01 01:40:36;;;;;;;12.63;11.73;;;13.10;86.90;;;;;;5040967;28;22073;-84
2022/09/01 01:43:04;;;;;;;11.23;10.33;;;13.20;87.60;;;;;;5040808;28;20452;-84
2022/09/01 01:45:30;;;;;;;8.47;7.77;;;13.10;85.80;;;;;;5040851;28;20484;-83
2022/09/01 01:47:57;;;;;;;9.47;7.00;;;13.00;85.70;;;;;;5040607;28;20476;-84
2022/09/01 01:50:28;;;;;;;6.77;5.73;;;12.90;83.90;;;;;;5040307;28;20456;-82
2022/09/01 01:52:58;;;;;;;10.10;8.70;;;13.00;82.40;;;;;;5040895;28;20542;-84
2022/09/01 01:55:27;;;;;;;15.60;14.50;;;12.90;85.60;;;;;;5040677;28;20796;-84
2022/09/01 01:57:55;;;;;;;15.30;14.00;;;12.90;88.30;;;;;;5040617;28;20464;-84
2022/09/01 02:00:25;;;;;;;18.77;17.30;;;13.00;88.20;;;;;;5041043;28;20463;-84
2022/09/01 02:02:54;;;;;;;21.70;20.40;;;13.00;90.00;;;;;;5039970;28;20448;-83
2022/09/01 02:05:23;;;;;;;20.10;18.70;;;13.10;90.60;;;;;;5040357;28;20479;-83
2022/09/01 02:07:54;;;;;;;20.67;19.57;;;13.20;90.10;;;;;;5040359;28;20479;-84
2022/09/01 02:10:26;;;;;;;18.60;16.80;;;13.30;90.50;;;;;;5040785;28;20460;-83
2022/09/01 02:12:56;;;;;;;25.30;23.90;;;13.10;90.50;;;;;;5040180;28;20500;-84
2022/09/01 02:15:24;;;;;;;22.73;21.43;;;13.00;91.60;;;;;;5039959;28;20446;-84
2022/09/01 02:17:51;;;;;;;20.97;19.80;;;13.20;91.60;;;;;;5040449;28;20472;-83
2022/09/01 02:20:17;;;;;;;34.10;32.00;;;13.00;92.20;;;;;;5039803;28;20880;-84
2022/09/01 02:22:44;;;;;;;43.10;41.10;;;12.90;93.00;;;;;;5040871;28;20463;-84
2022/09/01 02:25:15;;;;;;;47.30;45.27;;;12.80;93.80;;;;;;5040356;28;20487;-84
2022/09/01 02:27:42;;;;;;;63.97;61.10;;;12.80;94.80;;;;;;5040427;28;20472;-83
2022/09/01 02:30:11;;;;;;;65.27;62.37;;;12.70;95.80;;;;;;5039835;28;20464;-84
2022/09/01 02:32:40;;;;;;;70.30;67.43;;;12.70;96.40;;;;;;5040112;28;20829;-83
2022/09/01 02:35:08;;;;;;;63.57;61.00;;;12.60;96.80;;;;;;5039576;28;20476;-84
2022/09/01 02:37:38;;;;;;;87.87;84.63;;;12.50;97.20;;;;;;5039872;28;20535;-84
2022/09/01 02:40:06;;;;;;;97.57;94.07;;;12.40;98.60;;;;;;5040246;28;20455;-84
2022/09/01 02:42:33;;;;;;;77.93;74.80;;;12.40;99.00;;;;;;5040204;28;20448;-85
2022/09/01 02:45:00;;;;;;;43.87;41.77;;;12.30;98.60;;;;;;5039059;28;20979;-84
2022/09/01 02:47:28;;;;;;;87.93;84.47;;;12.20;98.50;;;;;;5040697;28;20558;-84
2022/09/01 02:49:57;;;;;;;107.90;103.80;;;12.10;99.90;;;;;;5039845;28;20467;-83
2022/09/01 02:52:24;;;;;;;216.93;209.83;;;12.00;99.90;;;;;;5045029;28;20448;-83
2022/09/01 02:54:50;;;;;;;303.57;293.60;;;11.90;99.90;;;;;;5047947;28;20457;-84
2022/09/01 02:57:17;;;;;;;311.50;301.13;;;12.00;99.90;;;;;;5048533;28;20472;-82
2022/09/01 02:59:46;;;;;;;260.73;252.40;;;12.00;99.90;;;;;;5047737;28;20515;-82
2022/09/01 03:02:13;;;;;;;259.70;250.97;;;11.90;99.90;;;;;;5048339;28;20452;-83
2022/09/01 03:04:42;;;;;;;288.47;278.73;;;12.00;99.90;;;;;;5041163;28;20988;-83
2022/09/01 03:07:09;;;;;;;268.40;259.17;;;12.20;99.90;;;;;;5039678;28;20825;-84
2022/09/01 03:09:40;;;;;;;194.43;187.80;;;12.10;99.90;;;;;;5039115;28;20463;-84
2022/09/01 03:12:07;;;;;;;126.87;122.37;;;12.20;99.90;;;;;;5038033;28;20484;-83
2022/09/01 03:14:34;;;;;;;108.20;104.20;;;12.20;99.90;;;;;;5033617;28;20968;-81
2022/09/01 03:17:00;;;;;;;90.00;86.20;;;12.20;99.90;;;;;;5037646;28;20444;-79
2022/09/01 03:19:40;;;;;;;93.77;90.30;;;12.20;99.90;;;;;;5039950;28;20452;-80
2022/09/01 03:22:08;;;;;;;82.93;79.73;;;12.20;99.90;;;;;;5031983;28;20456;-79
2022/09/01 03:24:35;;;;;;;89.70;85.90;;;12.30;99.90;;;;;;5041140;28;20518;-79
2022/09/01 03:27:02;;;;;;;114.37;110.27;;;12.10;99.90;;;;;;5042595;28;20468;-79
2022/09/01 03:29:29;;;;;;;89.33;86.00;;;12.10;99.90;;;;;;5039955;28;20452;-79
2022/09/01 03:31:56;;;;;;;100.17;95.27;;;12.10;99.90;;;;;;5040196;28;20458;-80
2022/09/01 03:34:22;;;;;;;51.33;48.97;;;12.10;99.90;;;;;;5039986;28;20702;-80
2022/09/01 03:36:49;;;;;;;32.90;31.30;;;12.10;99.90;;;;;;5040641;28;20463;-80
2022/09/01 03:39:18;;;;;;;34.17;32.40;;;12.20;99.80;;;;;;5040639;28;20474;-80
2022/09/01 03:41:45;;;;;;;40.23;38.40;;;12.20;98.80;;;;;;5040422;28;20828;-80
2022/09/01 03:44:15;;;;;;;40.83;38.43;;;12.20;99.10;;;;;;5040512;28;20460;-80
2022/09/01 03:46:43;;;;;;;52.40;50.20;;;12.10;99.30;;;;;;5038556;28;20547;-83
2022/09/01 03:49:14;;;;;;;51.23;49.00;;;12.20;99.90;;;;;;5043577;28;20449;-82
2022/09/01 03:52:40;;;;;;;39.50;37.50;;;12.20;99.90;;;;;;5044688;28;20460;-87
2022/09/01 03:55:09;;;;;;;43.80;41.90;;;12.10;99.70;;;;;;4999210;28;20518;-83
2022/09/01 03:57:41;;;;;;;48.07;46.07;;;12.10;99.60;;;;;;5041202;28;20490;-83
2022/09/01 04:00:21;;;;;;;46.73;44.63;;;12.10;99.90;;;;;;5033613;28;20543;-81
2022/09/01 04:02:49;;;;;;;47.90;45.90;;;12.00;99.60;;;;;;5048026;28;20455;-82
2022/09/01 04:05:17;;;;;;;69.93;67.13;;;11.90;99.90;;;;;;5049136;28;20476;-84
2022/09/01 04:07:47;;;;;;;43.67;41.57;;;11.80;99.90;;;;;;5049816;28;20507;-82
2022/09/01 04:10:16;;;;;;;56.30;53.73;;;11.70;99.20;;;;;;5049528;28;20444;-83
2022/09/01 04:12:43;;;;;;;92.30;88.83;;;11.60;99.90;;;;;;5050028;28;20444;-82
2022/09/01 04:15:11;;;;;;;131.83;127.13;;;11.60;99.90;;;;;;5049919;28;20522;-83
2022/09/01 04:20:22;;;;;;;253.20;245.10;;;11.40;99.90;;;;;;5049414;28;20434;-83
2022/09/01 04:22:51;;;;;;;270.10;261.13;;;11.30;99.90;;;;;;5048801;28;20459;-83
2022/09/01 04:25:26;;;;;;;279.23;269.47;;;11.30;99.90;;;;;;5049140;28;20508;-83
2022/09/01 04:27:54;;;;;;;284.47;274.53;;;11.30;99.90;;;;;;5048147;28;20467;-84
2022/09/01 04:30:32;;;;;;;288.83;278.80;;;11.20;99.90;;;;;;5049439;28;20456;-83
2022/09/01 04:32:59;;;;;;;323.93;311.93;;;11.00;99.90;;;;;;5049023;28;20556;-83
2022/09/01 04:35:30;;;;;;;339.20;326.80;;;11.10;99.90;;;;;;5047187;28;20475;-86
2022/09/01 04:37:56;;;;;;;402.27;387.47;;;11.10;99.90;;;;;;5041935;28;20468;-85
2022/09/01 04:40:25;;;;;;;384.67;370.27;;;11.00;99.90;;;;;;5039752;28;20826;-83
2022/09/01 04:42:52;;;;;;;439.70;421.77;;;11.00;99.90;;;;;;5042048;28;20452;-83
2022/09/01 04:45:21;;;;;;;484.97;464.60;;;11.00;99.90;;;;;;5039977;28;20476;-84
2022/09/01 04:47:48;;;;;;;706.90;671.23;;;11.00;99.90;;;;;;5040824;28;20833;-83
2022/09/01 04:50:16;;;;;;;746.83;707.43;;;11.10;99.90;;;;;;5041752;28;20897;-83
2022/09/01 04:52:43;;;;;;;741.93;703.57;;;11.00;99.90;;;;;;5040572;28;20452;-83
2022/09/01 04:55:16;;;;;;;745.97;706.93;;;11.10;99.90;;;;;;5040439;28;20449;-83
2022/09/01 04:57:46;;;;;;;625.13;595.73;;;11.10;99.90;;;;;;5040632;28;20560;-84
2022/09/01 05:00:21;;;;;;;572.00;546.33;;;11.00;99.90;;;;;;5040126;28;20448;-84
2022/09/01 05:02:49;;;;;;;468.40;448.97;;;10.90;99.90;;;;;;5041943;28;20451;-81
2022/09/01 05:05:16;;;;;;;429.57;412.27;;;11.00;99.90;;;;;;5039928;28;20484;-82
2022/09/01 05:07:43;;;;;;;394.53;378.63;;;10.90;99.90;;;;;;5040293;28;20496;-82
2022/09/01 05:10:17;;;;;;;376.63;362.43;;;11.00;99.90;;;;;;5040762;28;20452;-81
2022/09/01 05:13:11;;;;;;;432.70;414.43;;;11.00;99.90;;;;;;5042624;28;20539;-83
2022/09/01 05:18:43;;;;;;;391.37;376.27;;;11.20;99.90;;;;;;5038029;28;20475;-85
2022/09/01 05:21:11;;;;;;;360.87;347.23;;;11.30;99.90;;;;;;5044235;28;20440;-79
2022/09/01 05:23:39;;;;;;;373.37;358.83;;;11.30;99.90;;;;;;5047317;28;20536;-82
2022/09/01 05:26:13;;;;;;;362.77;349.10;;;11.30;99.90;;;;;;5033242;28;21029;-81
2022/09/01 05:28:42;;;;;;;330.63;318.63;;;11.40;99.90;;;;;;5027443;28;20471;-83
2022/09/01 05:31:09;;;;;;;309.67;298.77;;;11.60;99.90;;;;;;5041482;28;20452;-82
2022/09/01 05:33:38;;;;;;;278.10;268.57;;;11.60;99.90;;;;;;5038857;28;20456;-81
2022/09/01 05:36:11;;;;;;;251.63;243.23;;;11.70;99.90;;;;;;5035753;28;20522;-82
2022/09/01 05:38:41;;;;;;;242.70;234.60;;;11.90;99.90;;;;;;5037123;28;21011;-81
2022/09/01 05:41:10;;;;;;;272.20;263.00;;;11.80;99.90;;;;;;5039438;28;20452;-82
2022/09/01 05:43:37;;;;;;;342.27;329.53;;;11.80;99.90;;;;;;5037907;28;21051;-82
2022/09/01 05:46:08;;;;;;;329.33;317.40;;;12.00;99.90;;;;;;5038216;28;20468;-81
2022/09/01 05:48:38;;;;;;;334.70;322.57;;;12.00;99.90;;;;;;5038799;28;21031;-83
2022/09/01 05:51:06;;;;;;;315.77;304.57;;;12.00;99.90;;;;;;5038954;28;20518;-83
2022/09/01 05:53:33;;;;;;;386.93;371.90;;;12.10;99.90;;;;;;5038213;28;20471;-82
2022/09/01 05:56:05;;;;;;;423.20;406.77;;;12.20;99.90;;;;;;5038237;28;20498;-82
2022/09/01 05:58:34;;;;;;;367.70;354.13;;;12.30;99.90;;;;;;5038740;28;20473;-83
2022/09/01 06:01:01;;;;;;;323.40;311.97;;;12.40;99.90;;;;;;5039751;28;20452;-83
2022/09/01 06:03:44;;;;;;;370.43;356.47;;;12.50;99.90;;;;;;5041626;28;20451;-85
2022/09/01 06:06:11;;;;;;;414.63;398.17;;;12.60;99.90;;;;;;5046056;28;20468;-81
2022/09/01 06:08:41;;;;;;;364.40;350.43;;;12.70;99.90;;;;;;5048364;28;20495;-84
2022/09/01 06:11:11;;;;;;;395.37;380.07;;;12.70;99.90;;;;;;5047032;28;20873;-83
2022/09/01 06:13:38;;;;;;;385.13;370.27;;;12.90;99.90;;;;;;5046844;28;20452;-80
2022/09/01 06:16:06;;;;;;;347.27;334.33;;;13.00;99.90;;;;;;5046744;28;20456;-80
2022/09/01 06:18:35;;;;;;;370.30;356.70;;;13.10;99.90;;;;;;5046389;28;20483;-80
2022/09/01 06:21:04;;;;;;;329.30;317.47;;;13.30;99.90;;;;;;5046834;28;20491;-80
2022/09/01 06:23:32;;;;;;;164.33;158.33;;;13.50;99.90;;;;;;5045443;28;20453;-80
2022/09/01 06:26:00;;;;;;;136.47;131.30;;;13.70;99.90;;;;;;5038834;28;20473;-82
2022/09/01 06:28:28;;;;;;;79.80;76.50;;;13.80;99.90;;;;;;5038152;28;20530;-82
2022/09/01 06:30:56;;;;;;;52.57;49.73;;;13.90;99.70;;;;;;5043200;28;20850;-81
2022/09/01 06:33:24;;;;;;;43.97;41.33;;;14.10;99.20;;;;;;5042060;28;20452;-81
2022/09/01 06:35:54;;;;;;;22.57;21.10;;;14.40;96.70;;;;;;5044175;28;20448;-80
2022/09/01 06:38:21;;;;;;;20.07;18.57;;;14.70;95.30;;;;;;5041309;28;20482;-80
2022/09/01 06:40:48;;;;;;;13.07;11.93;;;14.80;93.60;;;;;;5038429;28;20834;-82
2022/09/01 06:43:15;;;;;;;10.63;9.50;;;15.00;93.00;;;;;;5038278;28;20460;-82
2022/09/01 06:48:45;;;;;;;8.17;5.90;;;15.30;89.50;;;;;;5031793;28;20473;-83
2022/09/01 06:51:19;;;;;;;15.57;5.33;;;15.60;87.80;;;;;;5038076;28;20467;-83
2022/09/01 06:53:55;;;;;;;9.07;4.47;;;15.70;85.50;;;;;;5037846;28;20458;-82
2022/09/01 06:56:23;;;;;;;5.30;2.73;;;16.00;82.30;;;;;;5037731;28;20543;-82
2022/09/01 06:58:53;;;;;;;7.60;3.13;;;16.10;70.80;;;;;;5036719;28;20461;-82
2022/09/01 07:01:38;;;;;;;5.80;2.43;;;16.60;67.00;;;;;;5037662;28;20455;-82
2022/09/01 07:04:04;;;;;;;7.70;3.23;;;16.80;65.00;;;;;;5037588;28;20445;-82
2022/09/01 07:06:34;;;;;;;5.77;3.07;;;17.00;65.60;;;;;;5037197;28;20477;-82
2022/09/01 07:09:01;;;;;;;5.63;2.70;;;17.00;63.20;;;;;;5036347;28;20509;-82
2022/09/01 07:11:31;;;;;;;4.70;2.13;;;17.20;61.70;;;;;;5037417;28;20467;-83
2022/09/01 07:14:00;;;;;;;6.33;2.33;;;17.40;56.90;;;;;;5037399;28;20960;-81
2022/09/01 07:16:29;;;;;;;5.83;2.73;;;17.60;52.00;;;;;;5037831;28;20447;-83
2022/09/01 07:18:59;;;;;;;4.67;2.20;;;17.80;51.20;;;;;;5037632;28;20486;-82
2022/09/01 07:21:33;;;;;;;5.30;2.30;;;17.90;50.70;;;;;;5037475;28;20463;-83
2022/09/01 07:24:03;;;;;;;6.20;2.03;;;18.10;46.60;;;;;;5037900;28;20960;-83
2022/09/01 07:26:30;;;;;;;9.30;2.63;;;18.20;44.60;;;;;;5038145;28;20828;-83
2022/09/01 07:28:58;;;;;;;6.07;2.47;;;18.30;43.90;;;;;;5038488;28;20482;-83
2022/09/01 07:31:27;;;;;;;6.13;2.47;;;18.40;42.80;;;;;;5038205;28;20451;-83
2022/09/01 07:33:57;;;;;;;5.03;2.07;;;18.50;42.90;;;;;;5038391;28;20455;-83
2022/09/01 07:36:25;;;;;;;9.03;2.17;;;18.70;42.10;;;;;;5039574;28;20448;-83
2022/09/01 07:38:53;;;;;;;5.03;2.00;;;18.70;41.00;;;;;;5042597;28;20477;-83
2022/09/01 07:44:09;;;;;;;7.73;2.20;;;18.90;41.40;;;;;;5041549;28;20450;-82
2022/09/01 07:46:35;;;;;;;5.30;2.00;;;19.10;39.70;;;;;;5042734;28;21010;-83
2022/09/01 07:49:04;;;;;;;5.57;1.97;;;19.10;40.70;;;;;;5042135;28;20469;-83
2022/09/01 07:51:32;;;;;;;5.97;1.80;;;19.20;38.40;;;;;;5042753;28;20465;-83
2022/09/01 07:54:01;;;;;;;6.60;2.37;;;19.30;38.80;;;;;;5042720;28;20522;-83
2022/09/01 07:56:30;;;;;;;6.53;2.50;;;19.40;37.70;;;;;;5042462;28;20425;-83
2022/09/01 07:58:58;;;;;;;4.73;1.97;;;19.70;35.00;;;;;;5041333;28;20480;-82
2022/09/01 08:01:27;;;;;;;6.80;1.73;;;20.00;35.30;;;;;;5042391;28;20454;-83
2022/09/01 08:03:56;;;;;;;6.23;1.73;;;20.40;32.70;;;;;;5043513;28;20455;-84
2022/09/01 08:06:25;;;;;;;5.90;1.87;;;20.90;30.40;;;;;;5041908;28;20478;-83
2022/09/01 08:08:53;;;;;;;7.80;2.27;;;21.30;28.00;;;;;;5039621;28;20480;-83
2022/09/01 08:11:23;;;;;;;5.93;2.23;;;21.50;26.30;;;;;;5040084;28;20461;-83
2022/09/01 08:13:52;;;;;;;8.40;4.00;;;22.00;25.80;;;;;;5040199;28;20458;-83
2022/09/01 08:16:20;;;;;;;7.30;2.00;;;22.00;24.20;;;;;;5040778;28;20447;-83
2022/09/01 08:18:48;;;;;;;5.40;2.30;;;22.20;23.30;;;;;;5041093;28;20479;-83
2022/09/01 08:21:16;;;;;;;4.73;1.90;;;22.50;21.50;;;;;;5040802;28;20466;-83
2022/09/01 08:23:43;;;;;;;10.27;2.20;;;22.60;20.20;;;;;;5040580;28;20459;-83
2022/09/01 08:26:12;;;;;;;5.10;1.90;;;23.00;20.00;;;;;;5041204;28;20475;-83
2022/09/01 08:28:40;;;;;;;6.73;1.70;;;23.30;18.10;;;;;;5039593;28;20468;-83
2022/09/01 08:31:09;;;;;;;4.83;1.80;;;23.50;16.10;;;;;;5038595;28;20494;-84
2022/09/01 08:33:36;;;;;;;5.67;2.33;;;23.30;15.20;;;;;;5039839;28;20448;-83
2022/09/01 08:36:04;;;;;;;9.37;2.10;;;23.60;15.20;;;;;;5040204;28;20444;-83
2022/09/01 08:38:31;;;;;;;5.83;1.93;;;23.80;14.90;;;;;;5039788;28;20487;-83
2022/09/01 08:40:59;;;;;;;8.90;2.30;;;24.10;13.60;;;;;;5039930;28;20452;-83
2022/09/01 08:43:39;;;;;;;6.50;1.70;;;24.50;11.90;;;;;;5040061;28;20455;-83
2022/09/01 08:46:14;;;;;;;7.00;1.87;;;24.90;10.70;;;;;;5039928;28;20463;-84
2022/09/01 08:48:44;;;;;;;6.40;2.03;;;25.10;7.60;;;;;;5040499;28;20486;-83
2022/09/01 08:51:18;;;;;;;4.93;1.83;;;25.40;5.60;;;;;;5041102;28;20671;-83
2022/09/01 08:53:49;;;;;;;7.27;1.47;;;25.60;3.00;;;;;;5041339;28;20456;-83
2022/09/01 08:56:18;;;;;;;6.60;1.83;;;25.20;2.30;;;;;;5041168;28;20451;-83
2022/09/01 08:58:45;;;;;;;6.33;1.50;;;25.60;2.50;;;;;;5041384;28;20455;-84
2022/09/01 09:01:26;;;;;;;5.30;1.50;;;25.30;1.00;;;;;;5041298;28;20515;-83
2022/09/01 09:04:13;;;;;;;5.07;1.40;;;25.80;1.00;;;;;;5040807;28;20487;-83
2022/09/01 09:06:48;;;;;;;4.13;1.37;;;25.40;1.00;;;;;;5040825;28;20499;-84
2022/09/01 09:09:15;;;;;;;4.87;1.40;;;25.90;1.00;;;;;;5041791;28;20426;-84
2022/09/01 09:11:57;;;;;;;4.83;1.20;;;26.10;1.00;;;;;;5041640;28;20519;-84
2022/09/01 09:15:05;;;;;;;4.90;1.40;;;25.80;1.00;;;;;;5040645;28;20973;-86
2022/09/01 09:17:41;;;;;;;4.33;1.40;;;26.20;1.00;;;;;;5041784;28;20439;-86
2022/09/01 09:20:13;;;;;;;5.30;1.70;;;25.70;1.00;;;;;;5042856;28;20868;-84
2022/09/01 09:22:44;;;;;;;5.40;1.53;;;26.40;1.00;;;;;;5041683;28;20824;-86
2022/09/01 09:25:38;;;;;;;4.17;1.10;;;26.10;1.00;;;;;;5040547;28;20480;-86
2022/09/01 09:28:19;;;;;;;5.07;1.30;;;25.10;1.00;;;;;;5041611;28;20543;-85
2022/09/01 09:31:42;;;;;;;5.90;1.57;;;24.90;1.00;;;;;;5043494;28;20444;-86
2022/09/01 09:34:32;;;;;;;4.93;1.33;;;25.70;1.00;;;;;;5041839;28;20456;-86
2022/09/01 09:37:31;;;;;;;4.87;1.30;;;25.70;1.00;;;;;;5041915;28;20921;-86
2022/09/01 09:40:21;;;;;;;4.03;1.27;;;25.70;1.00;;;;;;5042872;28;20487;-85
2022/09/01 09:43:26;;;;;;;4.43;1.30;;;25.60;1.00;;;;;;5042224;28;20916;-86
2022/09/01 09:46:46;;;;;;;5.27;1.20;;;26.50;1.00;;;;;;5041424;28;20501;-86
2022/09/01 09:49:59;;;;;;;4.37;1.27;;;26.90;1.00;;;;;;5042721;28;20451;-86
2022/09/01 09:52:34;;;;;;;5.90;1.37;;;27.60;1.00;;;;;;5040104;28;20823;-86
2022/09/01 09:58:25;;;;;;;5.77;1.60;;;28.30;1.00;;;;;;5030857;28;20894;-86
2022/09/01 10:05:11;;;;;;;4.87;1.20;;;28.40;1.00;;;;;;4976004;28;20451;-86
2022/09/01 10:08:17;;;;;;;4.90;1.40;;;29.10;1.00;;;;;;5020782;28;20480;-86
2022/09/01 10:11:46;;;;;;;;;;;;;;;;;;;;;
2022/09/01 10:14:49;;;;;;;5.40;1.30;;;29.60;1.00;;;;;;5042065;28;20421;-86
2022/09/01 10:17:50;;;;;;;4.37;1.50;;;29.90;1.00;;;;;;4997558;28;20477;-86
2022/09/01 10:20:20;;;;;;;4.43;1.30;;;29.20;1.00;;;;;;5041216;28;20459;-82
2022/09/01 10:22:48;;;;;;;4.00;1.17;;;29.30;1.00;;;;;;5042104;28;20496;-83
2022/09/01 10:25:18;;;;;;;4.30;1.40;;;29.60;1.00;;;;;;5041344;28;20430;-81
2022/09/01 10:27:48;;;;;;;5.23;1.20;;;30.10;1.00;;;;;;5041868;28;20482;-83
2022/09/01 10:30:17;;;;;;;5.53;1.10;;;30.20;1.00;;;;;;5042886;28;20463;-83
2022/09/01 10:32:49;;;;;;;5.87;1.10;;;30.50;1.00;;;;;;5042037;28;20452;-83
2022/09/01 10:35:23;;;;;;;6.10;1.30;;;30.20;1.00;;;;;;5041720;28;20542;-83
2022/09/01 10:37:51;;;;;;;6.00;1.03;;;30.20;1.00;;;;;;5041452;28;20470;-83
2022/09/01 10:40:37;;;;;;;4.57;1.30;;;30.10;1.00;;;;;;5040296;28;20505;-83
2022/09/01 10:43:27;;;;;;;5.87;1.50;;;30.10;1.00;;;;;;5039542;28;20460;-83
2022/09/01 10:45:55;;;;;;;7.43;2.73;;;29.50;1.00;;;;;;5041562;28;20482;-83
2022/09/01 10:48:28;;;;;;;5.60;1.20;;;28.20;1.00;;;;;;5040946;28;20563;-83
2022/09/01 10:51:33;;;;;;;4.20;1.30;;;27.60;1.00;;;;;;5039699;28;20463;-82
2022/09/01 10:54:02;;;;;;;6.73;1.30;;;28.30;1.00;;;;;;5040240;28;20427;-83
2022/09/01 10:56:38;;;;;;;4.00;1.00;;;27.90;1.00;;;;;;5040376;28;20868;-83
2022/09/01 10:59:08;;;;;;;4.30;1.17;;;27.20;1.00;;;;;;5040397;28;20484;-83
2022/09/01 11:02:09;;;;;;;4.47;1.53;;;27.40;1.00;;;;;;5040266;28;20967;-83
2022/09/01 11:05:12;;;;;;;6.10;1.17;;;28.10;1.00;;;;;;5040631;28;20539;-83
2022/09/01 11:07:39;;;;;;;5.77;1.50;;;29.30;1.00;;;;;;5039971;28;20483;-83
2022/09/01 11:10:26;;;;;;;4.97;1.37;;;29.60;1.00;;;;;;5040707;28;20476;-83
2022/09/01 11:13:15;;;;;;;4.23;1.10;;;30.20;1.00;;;;;;5040960;28;20434;-83
2022/09/01 11:15:44;;;;;;;8.13;1.20;;;30.40;1.00;;;;;;5039686;28;20411;-83
2022/09/01 11:18:15;;;;;;;4.97;0.90;;;31.10;1.00;;;;;;5040100;28;20512;-84
2022/09/01 11:20:43;;;;;;;5.30;1.20;;;30.20;1.00;;;;;;5040157;28;20453;-84
2022/09/01 11:23:20;;;;;;;5.17;1.30;;;31.00;1.00;;;;;;5040133;28;20460;-84
2022/09/01 11:25:49;;;;;;;5.60;1.50;;;31.20;1.00;;;;;;5039253;28;20434;-84
2022/09/01 11:28:38;;;;;;;4.87;1.37;;;31.20;1.00;;;;;;5039714;28;20483;-84
2022/09/01 11:31:30;;;;;;;6.53;1.50;;;31.30;1.00;;;;;;5040277;28;20482;-84
2022/09/01 11:34:13;;;;;;;6.50;1.33;;;30.80;1.00;;;;;;5039503;28;20426;-83
2022/09/01 11:36:59;;;;;;;4.30;1.33;;;30.70;1.00;;;;;;5040736;28;20463;-84
2022/09/01 11:39:41;;;;;;;6.20;1.43;;;30.50;1.00;;;;;;5041528;28;20494;-83
2022/09/01 11:42:16;;;;;;;4.67;1.60;;;30.10;1.00;;;;;;5039834;28;20515;-82
2022/09/01 11:45:10;;;;;;;6.00;1.50;;;30.40;1.00;;;;;;5019199;28;20800;-83
2022/09/01 11:47:39;;;;;;;4.53;1.43;;;29.00;1.00;;;;;;5018976;28;20455;-84
2022/09/01 11:50:16;;;;;;;5.30;1.43;;;28.40;1.00;;;;;;5020191;28;20440;-83
2022/09/01 11:52:53;;;;;;;5.50;1.47;;;29.30;1.00;;;;;;5021963;28;20504;-85
2022/09/01 11:55:30;;;;;;;7.63;1.60;;;30.20;1.00;;;;;;5021868;28;20457;-84
2022/09/01 11:57:58;;;;;;;4.80;1.60;;;29.50;1.00;;;;;;5023474;28;20483;-85
2022/09/01 12:00:30;;;;;;;4.10;1.33;;;29.30;1.00;;;;;;5023764;28;20449;-83
2022/09/01 12:02:58;;;;;;;6.97;1.50;;;29.90;1.00;;;;;;5023501;28;20453;-84
2022/09/01 12:05:31;;;;;;;5.63;1.30;;;31.20;1.00;;;;;;5023757;28;20555;-83
2022/09/01 12:07:59;;;;;;;4.50;1.50;;;31.60;1.00;;;;;;5024966;28;20495;-84
2022/09/01 12:10:32;;;;;;;9.73;2.30;;;32.80;1.00;;;;;;5022920;28;20424;-84
2022/09/01 12:13:07;;;;;;;6.10;1.37;;;33.40;1.00;;;;;;5024603;28;20917;-83
2022/09/01 12:15:36;;;;;;;4.47;1.43;;;33.00;1.00;;;;;;5024484;28;20427;-84
2022/09/01 12:18:17;;;;;;;4.50;1.50;;;31.60;1.00;;;;;;5025639;28;20977;-85
2022/09/01 12:20:45;;;;;;;4.60;1.63;;;31.00;1.00;;;;;;5027065;28;20475;-84
2022/09/01 12:23:23;;;;;;;4.27;1.40;;;31.30;1.00;;;;;;5028934;28;20435;-85
2022/09/01 12:25:50;;;;;;;4.57;1.67;;;32.70;1.00;;;;;;5030810;28;20427;-82
2022/09/01 12:28:20;;;;;;;5.30;1.67;;;33.50;1.00;;;;;;5027689;28;20461;-83
2022/09/01 12:30:47;;;;;;;4.87;1.93;;;34.00;1.00;;;;;;5026732;28;20453;-83
2022/09/01 12:33:14;;;;;;;5.70;1.93;;;33.80;1.00;;;;;;5025953;28;20490;-83
2022/09/01 12:35:41;;;;;;;6.60;1.70;;;34.80;1.00;;;;;;5028004;28;20456;-83
2022/09/01 12:38:23;;;;;;;5.80;1.87;;;34.80;1.00;;;;;;5027600;28;20447;-83
2022/09/01 12:40:52;;;;;;;4.30;1.53;;;35.30;1.00;;;;;;5027281;28;20531;-83
2022/09/01 12:43:36;;;;;;;5.53;1.60;;;35.60;1.00;;;;;;5026538;28;20492;-84
2022/09/01 12:46:05;;;;;;;4.40;1.80;;;35.50;1.00;;;;;;5023376;28;20449;-84
2022/09/01 12:48:33;;;;;;;4.40;1.50;;;34.90;1.00;;;;;;5023718;28;20488;-83
2022/09/01 12:51:03;;;;;;;4.67;1.53;;;35.40;1.00;;;;;;5025048;28;20461;-83
2022/09/01 12:53:53;;;;;;;4.63;1.50;;;35.80;1.00;;;;;;5026800;28;20449;-83
2022/09/01 12:56:34;;;;;;;5.00;1.77;;;34.70;1.00;;;;;;5027080;28;20457;-83
2022/09/01 12:59:42;;;;;;;6.67;1.83;;;32.80;1.00;;;;;;5027541;28;20455;-82
2022/09/01 13:05:33;;;;;;;4.87;1.97;;;30.60;1.00;;;;;;5028794;28;20427;-84
2022/09/01 13:08:09;;;;;;;4.60;1.70;;;29.20;1.00;;;;;;5011063;28;20518;-85
2022/09/01 13:10:47;;;;;;;5.97;1.97;;;28.30;1.00;;;;;;5039928;28;20419;-85
2022/09/01 13:13:27;;;;;;;4.80;1.60;;;28.20;1.00;;;;;;5048578;28;20448;-85
2022/09/01 13:19:26;;;;;;;9.70;1.80;;;31.30;1.00;;;;;;5062004;28;20479;-84
2022/09/01 13:22:08;;;;;;;26.53;3.30;;;32.00;1.00;;;;;;5050508;28;20452;-85
2022/09/01 13:24:56;;;;;;;6.43;2.10;;;32.90;1.00;;;;;;5047827;28;20437;-81
2022/09/01 13:27:43;;;;;;;8.93;2.10;;;32.80;1.00;;;;;;5063814;28;20449;-82
2022/09/01 13:30:11;;;;;;;5.83;1.63;;;33.90;1.00;;;;;;5067599;28;20409;-84
2022/09/01 13:32:40;;;;;;;5.00;1.60;;;34.00;1.00;;;;;;5068787;28;20447;-84
2022/09/01 13:35:07;;;;;;;4.87;1.90;;;34.00;1.00;;;;;;5068920;28;20430;-84